Time;durP1;ratioP1;P1;durP2;ratioP2;P2;SDS_P1;SDS_P2;PMS_P1;PMS_P2;Temp;Humidity;BMP_temperature;BMP_pressure;BME280_temperature;BME280_humidity;BME280_pressure;Samples;Min_cycle;Max_cycle;Signal;HPM_P1;HPM_P2
2021/11/10 04:17:01;;;;;;;;;;;;;;;1.87;91.72;100366.47;4981406;23;19929;-80
2021/11/10 04:19:27;;;;;;;;;;;;;;;1.69;91.07;100369.94;4976963;28;19928;-81
2021/11/10 04:21:52;;;;;;;;;;;;;;;1.57;90.54;100370.75;4977791;28;19918;-81
2021/11/10 04:24:17;;;;;;;;;;;;;;;1.42;89.89;100374.19;4994804;28;19921;-81
2021/11/10 04:26:42;;;;;;;;;;;;;;;1.32;89.68;100367.16;4977318;28;19925;-80
2021/11/10 04:29:08;;;;;;;;;;;;;;;1.29;89.84;100372.38;4977206;28;19922;-81
2021/11/10 04:31:33;;;;;;;;;;;;;;;1.14;89.49;100369.72;4993296;28;20020;-81
2021/11/10 04:33:59;;;;;;;;;;;;;;;0.97;89.23;100374.84;4977399;28;19918;-81
2021/11/10 04:36:26;;;;;;;;;;;;;;;0.95;88.71;100368.75;4988145;28;20072;-81
2021/11/10 04:38:51;;;;;;;;;;;;;;;0.82;88.13;100366.06;4994806;28;19922;-81
2021/11/10 04:41:17;;;;;;;;;;;;;;;0.68;87.82;100365.09;4994561;28;19918;-81
2021/11/10 04:43:42;;;;;;;;;;;;;;;0.69;87.74;100359.03;4994432;28;19918;-81
2021/11/10 04:46:23;;;;;;;;;;;;;;;0.53;87.48;100366.72;4993123;28;20000;-84
2021/11/10 04:48:49;;;;;;;;;;;;;;;0.54;87.17;100388.47;4976814;28;20261;-83
2021/11/10 04:51:15;;;;;;;;;;;;;;;0.41;86.75;100382.28;4977298;28;19918;-83
2021/11/10 04:53:42;;;;;;;;;;;;;;;0.39;86.38;100378.78;4976789;28;20005;-83
2021/11/10 04:56:08;;;;;;;;;;;;;;;0.34;86.42;100380.50;4976540;28;20013;-84
2021/11/10 04:58:33;;;;;;;;;;;;;;;0.24;86.11;100386.47;4994210;28;20008;-83
2021/11/10 05:00:59;;;;;;;;;;;;;;;0.23;88.25;100392.56;4975229;28;20246;-83
2021/11/10 05:03:24;;;;;;;;;;;;;;;0.59;91.71;100396.31;4991076;28;19918;-83
2021/11/10 05:05:50;;;;;;;;;;;;;;;0.79;94.75;100389.50;4970627;28;19953;-83
2021/11/10 05:08:15;;;;;;;;;;;;;;;1.15;97.79;100400.16;4976500;28;19924;-83
2021/11/10 05:10:40;;;;;;;;;;;;;;;1.43;100.00;100398.56;4991676;28;19918;-83
2021/11/10 05:13:06;;;;;;;;;;;;;;;1.70;100.00;100396.91;4993973;28;20269;-83
2021/11/10 05:15:31;;;;;;;;;;;;;;;1.77;100.00;100396.06;4974881;28;19961;-83
2021/11/10 05:17:56;;;;;;;;;;;;;;;1.85;100.00;100396.06;4993548;28;20281;-83
2021/11/10 05:20:22;;;;;;;;;;;;;;;1.87;100.00;100405.69;4993728;28;19980;-83
2021/11/10 05:22:47;;;;;;;;;;;;;;;1.97;100.00;100403.97;4976209;28;19918;-83
2021/11/10 05:25:13;;;;;;;;;;;;;;;1.98;100.00;100395.25;4993659;28;20476;-83
2021/11/10 05:27:38;;;;;;;;;;;;;;;2.01;100.00;100390.03;4993528;28;19921;-83
2021/11/10 05:30:04;;;;;;;;;;;;;;;2.03;100.00;100382.16;4974627;28;20373;-83
2021/11/10 05:32:30;;;;;;;;;;;;;;;2.03;100.00;100393.50;4975592;28;20016;-83
2021/11/10 05:34:58;;;;;;;;;;;;;;;2.04;100.00;100404.84;4975867;28;20024;-83
2021/11/10 05:37:24;;;;;;;;;;;;;;;2.09;100.00;100411.81;4992050;28;19928;-81
2021/11/10 05:39:49;;;;;;;;;;;;;;;2.06;100.00;100406.59;4975662;28;19922;-81
2021/11/10 05:42:14;;;;;;;;;;;;;;;2.13;100.00;100399.63;4987032;28;20435;-81
2021/11/10 05:44:40;;;;;;;;;;;;;;;2.04;100.00;100395.25;4990403;28;19922;-81
2021/11/10 05:47:05;;;;;;;;;;;;;;;2.06;100.00;100392.63;4975626;28;20397;-83
2021/11/10 08:58:29;;;;;;;;;;;;;;;2.96;80.00;100459.81;5010873;23;20377;-82
2021/11/10 09:00:55;;;;;;;;;;;;;;;2.97;80.14;100464.19;4994053;28;19922;-82
2021/11/10 09:03:21;;;;;;;;;;;;;;;3.02;80.11;100465.03;4993692;28;19933;-82
2021/11/10 09:05:48;;;;;;;;;;;;;;;2.99;79.91;100467.66;4992941;28;19922;-82
2021/11/10 09:08:13;;;;;;;;;;;;;;;2.96;79.50;100469.44;4993683;28;19926;-82
2021/11/10 09:10:39;;;;;;;;;;;;;;;2.90;79.44;100475.53;4992948;28;20375;-83
2021/11/10 09:13:05;;;;;;;;;;;;;;;2.89;79.12;100479.03;4974533;28;19976;-82
2021/11/10 09:15:32;;;;;;;;;;;;;;;2.99;79.51;100479.91;4976443;28;20012;-82
2021/11/10 09:17:58;;;;;;;;;;;;;;;3.07;79.29;100488.59;4993025;28;20273;-82
2021/11/10 09:20:24;;;;;;;;;;;;;;;3.09;79.53;100482.50;4975497;28;19929;-82
2021/11/10 09:22:50;;;;;;;;;;;;;;;3.21;79.90;100478.13;4974839;28;19965;-82
2021/11/10 09:25:17;;;;;;;;;;;;;;;3.29;79.78;100473.75;4975817;28;19957;-82
2021/11/10 09:27:42;;;;;;;;;;;;;;;3.26;79.30;100472.00;4974336;28;19926;-82
2021/11/10 09:30:10;;;;;;;;;;;;;;;3.20;78.70;100469.38;4975869;28;19928;-82
2021/11/10 09:32:37;;;;;;;;;;;;;;;3.21;78.66;100480.75;4975509;28;20361;-82
2021/11/10 09:35:06;;;;;;;;;;;;;;;3.28;78.88;100477.22;4974368;28;20024;-81
2021/11/10 09:37:31;;;;;;;;;;;;;;;3.25;78.53;100482.47;4975274;28;19918;-82
2021/11/10 09:39:56;;;;;;;;;;;;;;;3.30;78.57;100488.56;4975985;28;19924;-82
2021/11/10 09:42:23;;;;;;;;;;;;;;;3.33;78.59;100491.19;4992045;28;20262;-82
2021/11/10 09:44:49;;;;;;;;;;;;;;;3.31;78.32;100487.69;4991574;28;19925;-82
2021/11/10 09:47:14;;;;;;;;;;;;;;;3.29;78.54;100484.22;4993066;28;19922;-82
2021/11/10 09:49:40;;;;;;;;;;;;;;;3.27;78.34;100486.84;4993211;28;19928;-82
2021/11/10 09:52:05;;;;;;;;;;;;;;;3.32;78.15;100478.97;4975588;28;19918;-82
2021/11/10 09:54:31;;;;;;;;;;;;;;;3.26;78.10;100478.97;4975645;28;19924;-82
2021/11/10 09:56:56;;;;;;;;;;;;;;;3.33;78.39;100474.59;4974395;28;19918;-82
2021/11/10 09:59:21;;;;;;;;;;;;;;;3.29;78.02;100478.97;4975462;28;19921;-82
2021/11/10 10:01:47;;;;;;;;;;;;;;;3.27;78.53;100476.38;4992819;28;19922;-81
2021/11/10 10:04:13;;;;;;;;;;;;;;;3.38;78.26;100476.34;4992309;28;20285;-82
2021/11/10 10:06:39;;;;;;;;;;;;;;;3.27;77.90;100491.19;4992776;28;19918;-82
2021/11/10 10:09:04;;;;;;;;;;;;;;;3.42;78.19;100488.53;4992932;28;19921;-82
2021/11/10 10:11:30;;;;;;;;;;;;;;;3.42;77.72;100488.53;4973957;28;19917;-82
2021/11/10 10:13:55;;;;;;;;;;;;;;;3.53;78.31;100487.66;4974721;28;20610;-82
2021/11/10 10:16:22;;;;;;;;;;;;;;;3.52;78.43;100478.03;4992088;28;19918;-82
2021/11/10 10:18:48;;;;;;;;;;;;;;;3.48;77.87;100473.69;4974709;28;19934;-82
2021/11/10 10:21:13;;;;;;;;;;;;;;;3.56;78.19;100477.16;4991878;28;19921;-81
2021/11/10 10:23:40;;;;;;;;;;;;;;;3.57;78.01;100474.50;4974703;28;19917;-81
2021/11/10 10:26:08;;;;;;;;;;;;;;;3.58;77.82;100475.41;4972346;28;19925;-82
2021/11/10 10:28:38;;;;;;;;;;;;;;;3.61;77.93;100475.41;4974192;28;19922;-81
2021/11/10 10:31:05;;;;;;;;;;;;;;;3.60;77.65;100469.25;4992188;28;19926;-82
2021/11/10 10:33:34;;;;;;;;;;;;;;;3.60;77.54;100457.91;4991276;28;20218;-82
2021/11/10 10:36:10;;;;;;;;;;;;;;;3.64;77.82;100462.28;4974881;28;20381;-82
2021/11/10 10:38:48;;;;;;;;;;;;;;;3.67;77.68;100461.38;4989505;28;19976;-82
2021/11/10 10:41:15;;;;;;;;;;;;;;;3.68;77.28;100457.91;4991030;28;19976;-82
2021/11/10 10:43:52;;;;;;;;;;;;;;;3.69;77.29;100468.38;4991971;28;19988;-81
2021/11/10 10:46:18;;;;;;;;;;;;;;;3.82;76.53;100456.94;4991421;28;20373;-82
2021/11/10 10:48:44;;;;;;;;;;;;;;;3.76;76.72;100449.09;4990519;28;19945;-82
2021/11/10 10:51:15;;;;;;;;;;;;;;;3.76;76.88;100454.34;4973072;28;19926;-81
2021/11/10 10:53:51;;;;;;;;;;;;;;;3.76;76.91;100467.47;4991472;28;20858;-81
2021/11/10 10:56:27;;;;;;;;;;;;;;;3.81;76.89;100470.97;4973167;28;20304;-81
2021/11/10 10:58:53;;;;;;;;;;;;;;;3.82;77.05;100464.81;4991442;28;19921;-81
2021/11/10 11:01:22;;;;;;;;;;;;;;;3.90;77.00;100456.06;4974888;28;19926;-82
2021/11/10 11:03:51;;;;;;;;;;;;;;;3.94;76.89;100463.00;4992317;28;20670;-82
2021/11/10 11:06:24;;;;;;;;;;;;;;;3.99;76.87;100461.25;4973662;28;20270;-82
2021/11/10 11:08:49;;;;;;;;;;;;;;;4.04;76.88;100453.34;4980960;28;20430;-81
2021/11/10 11:11:20;;;;;;;;;;;;;;;3.99;76.55;100448.16;4990723;28;20074;-81
2021/11/10 11:13:48;;;;;;;;;;;;;;;4.02;76.55;100440.28;4974423;28;20016;-82
2021/11/10 11:16:17;;;;;;;;;;;;;;;4.01;76.97;100441.13;4991648;28;20361;-82
2021/11/10 11:18:42;;;;;;;;;;;;;;;4.02;77.02;100439.38;4974066;28;20456;-82
2021/11/10 11:21:24;;;;;;;;;;;;;;;4.05;76.71;100442.84;4991212;28;20004;-81
2021/11/10 11:23:50;;;;;;;;;;;;;;;4.03;76.62;100436.75;4990799;28;19930;-82
2021/11/10 11:26:31;;;;;;;;;;;;;;;4.02;76.44;100442.00;4972912;28;19918;-83
2021/11/10 11:28:58;;;;;;;;;;;;;;;4.03;76.57;100426.25;4991555;28;19925;-82
2021/11/10 11:31:33;;;;;;;;;;;;;;;4.03;76.63;100420.16;4991511;28;19926;-83
2021/11/10 11:34:00;;;;;;;;;;;;;;;4.06;76.58;100421.00;4991565;28;20103;-83
2021/11/10 11:36:43;;;;;;;;;;;;;;;4.03;76.69;100423.63;4990613;28;19925;-83
2021/11/10 11:39:09;;;;;;;;;;;;;;;4.03;76.65;100404.41;4967191;28;20352;-82
2021/11/10 11:41:34;;;;;;;;;;;;;;;4.03;76.54;100402.66;4965501;28;19922;-83
2021/11/10 11:44:00;;;;;;;;;;;;;;;4.02;76.74;100390.44;4984627;28;20377;-82
2021/11/10 11:46:26;;;;;;;;;;;;;;;4.04;77.20;100390.41;4982518;28;19926;-81
2021/11/10 11:48:55;;;;;;;;;;;;;;;4.05;77.09;100397.41;4984629;28;19922;-82
2021/11/10 11:51:20;;;;;;;;;;;;;;;4.07;77.03;100391.28;4968413;28;19936;-82
2021/11/10 11:53:46;;;;;;;;;;;;;;;4.05;77.20;100392.16;4960020;28;19918;-82
2021/11/10 11:56:12;;;;;;;;;;;;;;;4.09;77.29;100389.50;4966414;28;19969;-82
2021/11/10 11:58:43;;;;;;;;;;;;;;;4.08;77.58;100386.88;4985200;28;19922;-81
2021/11/10 12:01:12;;;;;;;;;;;;;;;4.05;77.23;100390.41;4985671;28;19924;-82
2021/11/10 12:03:39;;;;;;;;;;;;;;;4.07;77.46;100383.41;4985446;28;19953;-82
2021/11/10 12:06:04;;;;;;;;;;;;;;;4.07;77.47;100386.03;4969437;28;19929;-82
2021/11/10 12:08:39;;;;;;;;;;;;;;;4.11;77.57;100386.88;4967922;28;20297;-82
2021/11/10 12:11:23;;;;;;;;;;;;;;;4.09;77.69;100384.25;4966934;28;19926;-82
2021/11/10 12:14:07;;;;;;;;;;;;;;;4.08;77.57;100379.03;4967803;28;19924;-82
2021/11/10 12:16:48;;;;;;;;;;;;;;;4.17;77.85;100385.06;4968204;28;19924;-82
2021/11/10 12:19:33;;;;;;;;;;;;;;;4.16;77.95;100390.31;4983468;28;19918;-81
2021/11/10 12:22:05;;;;;;;;;;;;;;;4.18;78.03;100392.06;4983323;28;19918;-82
2021/11/10 12:24:36;;;;;;;;;;;;;;;4.19;78.19;100396.41;4967632;28;20004;-82
2021/11/10 12:27:07;;;;;;;;;;;;;;;4.21;78.21;100404.28;4981612;28;20356;-81
2021/11/10 12:29:40;;;;;;;;;;;;;;;4.22;78.57;100394.69;4984455;28;20436;-82
2021/11/10 12:32:06;;;;;;;;;;;;;;;4.23;78.66;100389.41;4984672;28;20357;-82
2021/11/10 12:34:33;;;;;;;;;;;;;;;4.22;78.72;100381.56;4964935;28;19961;-82
2021/11/10 12:36:59;;;;;;;;;;;;;;;4.24;78.49;100377.16;4982594;28;19922;-82
2021/11/10 12:39:40;;;;;;;;;;;;;;;4.23;78.85;100378.94;4984634;28;19933;-82
2021/11/10 12:42:08;;;;;;;;;;;;;;;4.25;78.93;100376.28;4979936;28;19933;-82
2021/11/10 12:44:53;;;;;;;;;;;;;;;4.31;78.86;100376.25;4984476;28;19922;-82
2021/11/10 12:47:38;;;;;;;;;;;;;;;4.29;79.07;100371.00;4983931;28;20394;-82
2021/11/10 12:50:47;;;;;;;;;;;;;;;4.35;79.26;100362.22;4984744;28;19921;-81
2021/11/10 12:53:13;;;;;;;;;;;;;;;4.55;80.56;100367.28;4932677;29;19918;-81
2021/11/10 12:55:53;;;;;;;;;;;;;;;4.70;81.57;100367.13;4908793;29;19929;-82
2021/11/10 12:58:20;;;;;;;;;;;;;;;4.81;83.20;100367.03;4950475;28;20359;-82
2021/11/10 13:00:45;;;;;;;;;;;;;;;4.83;84.14;100360.00;4979537;28;20098;-82
2021/11/10 13:03:21;;;;;;;;;;;;;;;4.91;84.93;100354.69;4963136;28;20040;-82
2021/11/10 13:06:00;;;;;;;;;;;;;;;4.95;85.73;100360.78;4963629;28;19926;-81
2021/11/10 13:08:30;;;;;;;;;;;;;;;4.96;86.51;100346.75;4964184;28;19926;-82
2021/11/10 13:10:56;;;;;;;;;;;;;;;4.85;87.18;100342.50;4964384;28;19950;-82
2021/11/10 13:13:22;;;;;;;;;;;;;;;4.80;87.66;100336.41;4962014;28;20012;-82
2021/11/10 13:15:47;;;;;;;;;;;;;;;4.68;88.14;100337.41;4964851;28;19926;-82
2021/11/10 13:18:20;;;;;;;;;;;;;;;4.60;88.69;100336.63;4979729;28;20010;-82
2021/11/10 13:20:49;;;;;;;;;;;;;;;4.53;89.34;100343.69;4964654;28;19969;-82
2021/11/10 13:23:30;;;;;;;;;;;;;;;4.43;90.44;100344.63;4963111;28;19934;-82
2021/11/10 13:25:56;;;;;;;;;;;;;;;4.38;92.36;100341.19;4963641;28;20053;-83
2021/11/10 13:28:22;;;;;;;;;;;;;;;4.42;93.84;100332.41;4963369;28;20013;-82
2021/11/10 13:30:49;;;;;;;;;;;;;;;4.44;95.85;100332.41;4964149;28;19926;-82
2021/11/10 13:33:18;;;;;;;;;;;;;;;4.53;98.17;100327.03;4964261;28;20381;-82
2021/11/10 13:35:44;;;;;;;;;;;;;;;4.54;100.00;100327.03;4964261;28;19944;-82
2021/11/10 13:38:09;;;;;;;;;;;;;;;4.72;100.00;100325.13;4964805;28;19923;-82
2021/11/10 13:40:34;;;;;;;;;;;;;;;4.93;100.00;100317.91;4964367;28;19918;-82
2021/11/10 13:43:00;;;;;;;;;;;;;;;5.05;100.00;100315.13;4962497;28;20350;-82
2021/11/10 13:45:26;;;;;;;;;;;;;;;5.19;100.00;100318.47;4964371;28;19918;-82
2021/11/10 13:47:57;;;;;;;;;;;;;;;5.24;100.00;100315.78;4964022;28;20548;-82
2021/11/10 13:50:41;;;;;;;;;;;;;;;5.32;100.00;100315.69;4962213;28;19937;-82
2021/11/10 13:53:13;;;;;;;;;;;;;;;5.39;100.00;100323.47;4963715;28;20081;-82
2021/11/10 13:55:41;;;;;;;;;;;;;;;5.49;100.00;100325.97;4976323;28;20486;-82
2021/11/10 13:58:09;;;;;;;;;;;;;;;5.53;100.00;100332.94;4969301;28;19921;-81
2021/11/10 14:00:35;;;;;;;;;;;;;;;5.56;100.00;100328.50;4965018;28;19932;-82
2021/11/10 14:03:00;;;;;;;;;;;;;;;5.64;100.00;100331.03;4965855;28;19922;-82
2021/11/10 14:05:26;;;;;;;;;;;;;;;5.70;100.00;100322.19;4982428;28;19922;-81
2021/11/10 14:07:51;;;;;;;;;;;;;;;5.74;100.00;100326.50;4964214;28;19942;-82
2021/11/10 14:10:25;;;;;;;;;;;;;;;5.75;100.00;100323.00;4982216;28;19965;-81
2021/11/10 14:12:51;;;;;;;;;;;;;;;5.80;100.00;100316.75;4962972;28;19921;-82
2021/11/10 14:15:19;;;;;;;;;;;;;;;5.82;100.00;100315.00;4981587;28;20464;-81
2021/11/10 14:17:52;;;;;;;;;;;;;;;5.85;100.00;100315.84;4964831;28;19926;-81
2021/11/10 14:20:27;;;;;;;;;;;;;;;5.90;100.00;100317.47;4981508;28;20004;-82
2021/11/10 14:23:00;;;;;;;;;;;;;;;5.95;100.00;100318.31;4982552;28;20037;-82
2021/11/10 14:25:28;;;;;;;;;;;;;;;5.96;100.00;100320.06;4965599;28;20361;-81
2021/11/10 14:27:57;;;;;;;;;;;;;;;5.09;100.00;100333.47;4979305;28;19928;-82
2021/11/10 14:30:24;;;;;;;;;;;;;;;4.45;100.00;100342.88;4963740;28;20013;-82
2021/11/10 14:32:52;;;;;;;;;;;;;;;4.19;100.00;100351.81;4982112;28;20557;-82
2021/11/10 14:35:18;;;;;;;;;;;;;;;3.99;100.00;100349.38;4981685;28;19932;-82
2021/11/10 14:37:44;;;;;;;;;;;;;;;3.92;100.00;100339.78;4982182;28;20028;-82
2021/11/10 14:42:58;;;;;;;;;;;;;;;3.69;100.00;100336.47;4981567;28;19985;-82
2021/11/10 14:45:25;;;;;;;;;;;;;;;3.67;100.00;100336.47;4982575;28;19928;-82
2021/11/10 14:47:52;;;;;;;;;;;;;;;3.57;99.34;100337.38;4982709;28;20219;-82
2021/11/10 14:50:18;;;;;;;;;;;;;;;3.54;98.32;100321.69;4981329;28;19944;-82
2021/11/10 14:52:44;;;;;;;;;;;;;;;3.54;97.32;100332.16;4983021;28;20112;-82
2021/11/10 14:55:10;;;;;;;;;;;;;;;3.54;96.35;100326.91;4982577;28;20433;-82
2021/11/10 14:57:35;;;;;;;;;;;;;;;3.48;95.32;100326.94;4980998;28;20120;-82
2021/11/10 15:00:04;;;;;;;;;;;;;;;3.42;94.54;100320.88;4962399;28;19917;-82
2021/11/10 15:02:30;;;;;;;;;;;;;;;3.34;93.76;100322.66;4965472;28;20304;-82
2021/11/10 15:04:55;;;;;;;;;;;;;;;3.29;93.26;100324.44;4964970;28;20483;-82
2021/11/10 15:07:22;;;;;;;;;;;;;;;3.33;92.81;100323.53;4982736;28;19929;-82
2021/11/10 15:09:47;;;;;;;;;;;;;;;3.28;92.29;100317.44;4985595;28;20431;-82
2021/11/10 15:12:30;;;;;;;;;;;;;;;3.25;92.06;100322.69;4984967;28;19918;-82
2021/11/10 15:14:56;;;;;;;;;;;;;;;3.21;91.64;100318.38;4986673;28;19961;-82
2021/11/10 15:17:23;;;;;;;;;;;;;;;3.17;91.50;100316.63;4986363;28;19980;-82
2021/11/10 15:20:00;;;;;;;;;;;;;;;3.21;91.54;100319.22;4986249;28;20293;-82
2021/11/10 15:22:28;;;;;;;;;;;;;;;3.16;91.09;100327.97;4985066;28;20344;-82
2021/11/10 15:24:53;;;;;;;;;;;;;;;3.15;90.89;100328.84;4986139;28;19956;-82
2021/11/10 15:27:19;;;;;;;;;;;;;;;3.14;90.49;100321.88;4984769;28;19969;-82
2021/11/10 15:29:44;;;;;;;;;;;;;;;3.05;90.44;100326.28;4968577;28;19961;-81
2021/11/10 15:32:10;;;;;;;;;;;;;;;2.98;90.28;100335.00;4968284;28;20350;-82
2021/11/10 15:34:35;;;;;;;;;;;;;;;3.02;90.26;100330.66;4983267;28;19917;-81
2021/11/10 15:37:01;;;;;;;;;;;;;;;3.02;89.91;100334.13;4968656;28;20400;-82
2021/11/10 15:39:26;;;;;;;;;;;;;;;3.03;89.87;100327.13;4965567;28;19925;-82
2021/11/10 15:41:52;;;;;;;;;;;;;;;2.98;89.56;100332.38;4966847;28;19967;-82
2021/11/10 15:44:18;;;;;;;;;;;;;;;3.00;89.49;100335.88;4985383;28;20331;-82
2021/11/10 15:46:43;;;;;;;;;;;;;;;3.01;89.74;100321.03;4968169;28;20044;-82
2021/11/10 15:49:09;;;;;;;;;;;;;;;2.93;89.45;100323.69;4982272;28;19926;-82
2021/11/10 15:51:34;;;;;;;;;;;;;;;2.89;89.41;100327.19;4981917;28;19948;-82
2021/11/10 15:54:00;;;;;;;;;;;;;;;2.88;89.32;100314.97;4985746;28;20365;-82
2021/11/10 15:56:25;;;;;;;;;;;;;;;2.91;89.00;100305.34;4984126;28;19918;-82
2021/11/10 15:58:51;;;;;;;;;;;;;;;2.87;88.78;100316.72;4985749;28;19995;-82
2021/11/10 16:01:16;;;;;;;;;;;;;;;2.85;88.46;100320.22;4985317;28;20000;-82
2021/11/10 16:03:44;;;;;;;;;;;;;;;2.85;88.47;100310.59;4985344;28;19929;-82
2021/11/10 16:06:10;;;;;;;;;;;;;;;2.83;88.61;100306.28;4986344;28;20393;-82
2021/11/10 16:08:36;;;;;;;;;;;;;;;2.93;88.23;100305.34;4985400;28;19918;-82
2021/11/10 16:11:02;;;;;;;;;;;;;;;2.89;88.19;100314.13;4984970;28;19922;-82
2021/11/10 16:13:27;;;;;;;;;;;;;;;2.88;88.07;100309.75;4984281;28;19941;-82
2021/11/10 16:15:53;;;;;;;;;;;;;;;2.84;87.88;100316.75;4985366;28;19964;-82
2021/11/10 16:18:19;;;;;;;;;;;;;;;2.88;87.58;100322.81;4967377;28;19922;-82
2021/11/10 16:20:47;;;;;;;;;;;;;;;2.79;87.30;100322.84;4984380;28;19921;-82
2021/11/10 16:23:13;;;;;;;;;;;;;;;2.77;87.27;100324.59;4984851;28;19969;-82
2021/11/10 16:25:38;;;;;;;;;;;;;;;2.80;86.98;100315.00;4984959;28;19961;-82
2021/11/10 16:28:11;;;;;;;;;;;;;;;2.74;86.87;100322.84;4984256;28;20432;-82
2021/11/10 16:33:08;;;;;;;;;;;;;;;2.71;86.62;100326.38;4985361;28;19929;-82
2021/11/10 16:35:34;;;;;;;;;;;;;;;2.74;86.91;100325.47;4984776;28;20359;-82
2021/11/10 16:37:59;;;;;;;;;;;;;;;2.73;86.60;100319.38;4984986;28;19992;-82
2021/11/10 16:40:24;;;;;;;;;;;;;;;2.68;86.42;100318.53;4985109;28;19968;-82
2021/11/10 16:42:50;;;;;;;;;;;;;;;2.67;86.13;100318.53;4983649;28;19926;-82
2021/11/10 16:45:15;;;;;;;;;;;;;;;2.66;86.16;100314.16;4984553;28;20382;-82
2021/11/10 16:47:40;;;;;;;;;;;;;;;2.66;85.85;100315.00;4984820;28;19965;-83
2021/11/10 16:50:06;;;;;;;;;;;;;;;2.66;85.48;100314.16;4984643;28;19924;-82
2021/11/10 16:52:31;;;;;;;;;;;;;;;2.54;85.25;100322.91;4984198;28;19926;-82
2021/11/10 16:54:57;;;;;;;;;;;;;;;2.53;85.37;100327.25;4984263;28;19925;-82
2021/11/10 16:57:23;;;;;;;;;;;;;;;2.56;85.52;100318.53;4982582;28;19918;-82
2021/11/10 16:59:48;;;;;;;;;;;;;;;2.57;85.30;100320.28;4984407;28;19922;-82
2021/11/10 17:02:13;;;;;;;;;;;;;;;2.57;85.27;100325.53;4984741;28;19917;-82
2021/11/10 17:04:39;;;;;;;;;;;;;;;2.58;85.20;100326.38;4984218;28;19922;-82
2021/11/10 17:07:04;;;;;;;;;;;;;;;2.57;85.01;100336.00;4984563;28;19921;-82
2021/11/10 17:09:29;;;;;;;;;;;;;;;2.54;85.03;100336.00;4966553;28;20009;-82
2021/11/10 17:11:55;;;;;;;;;;;;;;;2.51;85.22;100343.84;4983353;28;19976;-82
2021/11/10 17:14:20;;;;;;;;;;;;;;;2.56;85.12;100344.69;4984039;28;20060;-82
2021/11/10 17:16:46;;;;;;;;;;;;;;;2.56;84.99;100344.69;4983993;28;19922;-82
2021/11/10 17:19:11;;;;;;;;;;;;;;;2.94;85.73;100346.38;4984790;28;20020;-83
2021/11/10 17:21:36;;;;;;;;;;;;;;;3.06;86.36;100345.47;4983988;28;20425;-82
2021/11/10 17:24:02;;;;;;;;;;;;;;;3.19;86.22;100343.66;4983904;28;19918;-82
2021/11/10 17:26:27;;;;;;;;;;;;;;;4.06;88.62;100337.06;4983046;28;20116;-83
2021/11/10 17:28:52;;;;;;;;;;;;;;;3.47;86.90;100346.19;4984069;28;20377;-83
2021/11/10 17:31:18;;;;;;;;;;;;;;;3.33;87.16;100346.25;4966444;28;19928;-82
2021/11/10 17:33:43;;;;;;;;;;;;;;;3.04;87.02;100350.69;4982834;28;19965;-83
2021/11/10 17:36:09;;;;;;;;;;;;;;;3.09;86.23;100348.97;4966145;28;19922;-83
2021/11/10 17:38:34;;;;;;;;;;;;;;;3.15;86.32;100345.44;4966275;28;19972;-83
2021/11/10 17:41:03;;;;;;;;;;;;;;;3.05;85.59;100341.97;4965821;28;19928;-83
2021/11/10 17:43:28;;;;;;;;;;;;;;;3.02;85.51;100348.97;4964696;28;20016;-83
2021/11/10 17:45:54;;;;;;;;;;;;;;;2.94;85.14;100356.84;4983632;28;20350;-83
2021/11/10 17:48:19;;;;;;;;;;;;;;;2.88;85.01;100364.72;4966326;28;19933;-84
2021/11/10 17:50:45;;;;;;;;;;;;;;;2.84;84.98;100365.59;4982940;28;20357;-84
2021/11/10 17:53:11;;;;;;;;;;;;;;;2.85;84.45;100360.34;4965120;28;19921;-84
2021/11/10 17:55:36;;;;;;;;;;;;;;;2.85;84.04;100354.25;4964919;28;19993;-84
2021/11/10 17:58:01;;;;;;;;;;;;;;;2.75;83.69;100353.41;4961221;28;19973;-85
2021/11/10 18:00:29;;;;;;;;;;;;;;;2.88;83.86;100355.09;4960871;28;19928;-85
2021/11/10 18:02:54;;;;;;;;;;;;;;;2.88;83.31;100357.72;4963294;28;19922;-84
2021/11/10 18:05:20;;;;;;;;;;;;;;;2.86;83.04;100356.00;4962345;28;19926;-84
2021/11/10 18:07:45;;;;;;;;;;;;;;;2.88;82.92;100355.09;4975036;28;19973;-85
2021/11/10 18:10:11;;;;;;;;;;;;;;;2.90;82.73;100366.47;4963714;28;19949;-84
2021/11/10 18:12:37;;;;;;;;;;;;;;;2.93;82.19;100365.56;4961590;28;19918;-84
2021/11/10 18:15:03;;;;;;;;;;;;;;;2.84;82.46;100358.63;4962677;28;19922;-85
2021/11/10 18:17:29;;;;;;;;;;;;;;;2.90;82.26;100360.34;4962305;28;19919;-85
2021/11/10 18:19:54;;;;;;;;;;;;;;;2.82;82.07;100354.25;4962758;28;19919;-84
2021/11/10 18:22:19;;;;;;;;;;;;;;;2.81;81.97;100356.00;4962023;28;20025;-85
2021/11/10 18:24:45;;;;;;;;;;;;;;;2.77;81.87;100358.63;4962477;28;19918;-85
2021/11/10 18:27:10;;;;;;;;;;;;;;;2.81;81.91;100357.72;4961549;28;19922;-84
2021/11/10 18:29:36;;;;;;;;;;;;;;;2.81;81.69;100355.13;4962743;28;19974;-84
2021/11/10 18:32:01;;;;;;;;;;;;;;;2.86;81.28;100354.25;4960797;28;19970;-84
2021/11/10 18:34:26;;;;;;;;;;;;;;;2.86;81.17;100359.47;4962214;28;19925;-84
2021/11/10 18:36:52;;;;;;;;;;;;;;;2.97;80.88;100364.69;4962455;28;19940;-84
2021/11/10 18:39:17;;;;;;;;;;;;;;;2.80;80.87;100354.25;4962534;28;19918;-84
2021/11/10 18:41:44;;;;;;;;;;;;;;;2.91;80.71;100357.72;4964789;28;19961;-84
2021/11/10 18:44:10;;;;;;;;;;;;;;;2.84;80.64;100349.88;4962577;28;20405;-85
2021/11/10 18:46:35;;;;;;;;;;;;;;;2.88;80.58;100351.63;4963153;28;19946;-85
2021/11/10 18:49:01;;;;;;;;;;;;;;;2.89;80.60;100351.63;4963130;28;19922;-84
2021/11/10 18:51:26;;;;;;;;;;;;;;;2.94;80.38;100351.63;4963346;28;19922;-84
2021/11/10 18:53:51;;;;;;;;;;;;;;;2.99;79.97;100351.59;4963613;28;19938;-84
2021/11/10 18:56:17;;;;;;;;;;;;;;;3.05;79.57;100355.06;4962154;28;20008;-85
2021/11/10 18:58:44;;;;;;;;;;;;;;;3.03;79.37;100348.09;4976608;28;19926;-85
2021/11/10 19:01:19;;;;;;;;;;;;;;;2.98;79.30;100355.94;4982563;28;19976;-85
2021/11/10 19:03:49;;;;;;;;;;;;;;;2.91;79.33;100357.72;4982358;28;19922;-84
2021/11/10 19:07:02;;;;;;;;;;;;;;;2.92;79.38;100358.59;4982823;28;20428;-85
2021/11/10 19:09:19;;;;;;;;;;;;;;;2.94;79.06;100356.00;4977133;28;19937;-84
2021/11/10 19:17:10;;;;;;;;;;;;;;;2.96;78.43;100370.78;4981930;28;19940;-86
2021/11/10 19:22:02;;;;;;;;;;;;;;;3.05;78.32;100373.41;4984381;28;19918;-86
2021/11/10 19:24:28;;;;;;;;;;;;;;;3.05;77.92;100364.69;4981610;28;20435;-85
2021/11/10 19:26:53;;;;;;;;;;;;;;;3.05;78.13;100368.16;4978656;28;20009;-86
2021/11/10 19:29:19;;;;;;;;;;;;;;;3.08;77.93;100369.91;4964768;28;20053;-85
2021/11/10 19:31:46;;;;;;;;;;;;;;;3.08;77.66;100373.41;4964528;28;19921;-85
2021/11/10 19:34:11;;;;;;;;;;;;;;;3.09;77.98;100375.16;4964935;28;19960;-85
2021/11/10 19:36:37;;;;;;;;;;;;;;;3.04;77.62;100369.03;4982423;28;19961;-86
2021/11/10 19:39:03;;;;;;;;;;;;;;;3.05;77.72;100383.88;4964951;28;19953;-85
2021/11/10 19:41:29;;;;;;;;;;;;;;;3.08;77.24;100373.41;4963822;28;20233;-85
2021/11/10 19:43:54;;;;;;;;;;;;;;;3.03;77.12;100377.78;4962080;28;19940;-84
2021/11/10 19:46:20;;;;;;;;;;;;;;;3.04;77.09;100376.03;4964590;28;19934;-82
2021/11/10 19:48:45;;;;;;;;;;;;;;;3.05;77.12;100383.00;4980839;28;20336;-82
2021/11/10 19:51:12;;;;;;;;;;;;;;;3.06;77.02;100388.25;4964618;28;20008;-83
2021/11/10 19:53:38;;;;;;;;;;;;;;;3.06;76.88;100385.63;4965200;28;20042;-83
2021/11/10 19:56:05;;;;;;;;;;;;;;;3.05;76.66;100391.72;4966160;28;19934;-83
2021/11/10 19:58:36;;;;;;;;;;;;;;;3.09;76.86;100388.25;4984028;28;20333;-83
2021/11/10 20:01:02;;;;;;;;;;;;;;;3.13;76.87;100398.69;4984302;28;19921;-83
2021/11/10 20:03:28;;;;;;;;;;;;;;;3.11;76.64;100396.06;4985865;28;20421;-83
2021/11/10 20:05:53;;;;;;;;;;;;;;;3.12;76.57;100396.94;4968459;28;20005;-83
2021/11/10 20:08:22;;;;;;;;;;;;;;;3.12;76.58;100397.81;4968451;28;19926;-83
2021/11/10 20:10:47;;;;;;;;;;;;;;;3.11;76.36;100397.81;4967840;28;19922;-83
2021/11/10 20:13:13;;;;;;;;;;;;;;;3.11;76.32;100397.81;4964922;28;19941;-82
2021/11/10 20:15:38;;;;;;;;;;;;;;;3.13;76.03;100403.91;4968161;28;20001;-82
2021/11/10 20:18:03;;;;;;;;;;;;;;;3.15;75.94;100402.19;4985217;28;19918;-83
2021/11/10 20:20:29;;;;;;;;;;;;;;;3.11;75.80;100397.81;4965447;28;19929;-83
2021/11/10 20:22:55;;;;;;;;;;;;;;;3.16;75.88;100401.28;4983354;28;19965;-83
2021/11/10 20:25:20;;;;;;;;;;;;;;;3.18;75.91;100410.03;4985200;28;20388;-83